ALK89L VCBI-VGHS
Flight info
| Callsign | ALK89L |
|---|---|
| Flight time | N/A |
| Altitude | 37000 |
| Route | ATETA2D ATETA DCT SAGOR/N0439F390 DCT SUGAN Q10 PONOG DCT BEMAK A462 AKEVO |
| Aircraft | A20N/M-SDE2E3FGHIRWXY/LB1 |
Departure
| Time | 2026-04-28 21:57 |
|---|---|
| Airport | Bandaranaike International Colombo Airport (VCBI) |
Arrival
| Time | N/A |
|---|---|
| Airport | Hazrat Shahjalal International Airport (VGHS) |
| Time | Latitude | Longitude | Altitude | Speed | Heading |
|---|---|---|---|---|---|
| 2026-04-28 21:42 | 7.17615 | 79.88567 | 30 ft | 0 kts | 217° |
| 2026-04-28 21:46 | 7.17616 | 79.88568 | 30 ft | 2 kts | 217° |
| 2026-04-28 21:46 | 7.17630 | 79.88579 | 30 ft | 3 kts | 217° |
| 2026-04-28 21:46 | 7.17645 | 79.88590 | 30 ft | 3 kts | 217° |
| 2026-04-28 21:46 | 7.17659 | 79.88601 | 30 ft | 3 kts | 217° |
| 2026-04-28 21:47 | 7.17673 | 79.88612 | 30 ft | 3 kts | 217° |
| 2026-04-28 21:47 | 7.17687 | 79.88622 | 30 ft | 3 kts | 224° |
| 2026-04-28 21:47 | 7.17696 | 79.88638 | 30 ft | 3 kts | 263° |
| 2026-04-28 21:47 | 7.17694 | 79.88656 | 30 ft | 3 kts | 302° |
| 2026-04-28 21:48 | 7.17691 | 79.88659 | 30 ft | 0 kts | 313° |
| 2026-04-28 21:50 | 7.17697 | 79.88653 | 30 ft | 3 kts | 311° |
| 2026-04-28 21:51 | 7.17710 | 79.88635 | 30 ft | 6 kts | 305° |
| 2026-04-28 21:51 | 7.17748 | 79.88581 | 30 ft | 10 kts | 306° |
| 2026-04-28 21:51 | 7.17791 | 79.88525 | 30 ft | 10 kts | 307° |
| 2026-04-28 21:51 | 7.17830 | 79.88473 | 30 ft | 9 kts | 308° |
| 2026-04-28 21:52 | 7.17854 | 79.88417 | 30 ft | 10 kts | 262° |
| 2026-04-28 21:52 | 7.17795 | 79.88356 | 31 ft | 14 kts | 216° |
| 2026-04-28 21:52 | 7.17708 | 79.88291 | 31 ft | 17 kts | 217° |
| 2026-04-28 21:52 | 7.17615 | 79.88219 | 31 ft | 17 kts | 217° |
| 2026-04-28 21:53 | 7.17522 | 79.88149 | 30 ft | 17 kts | 217° |
| 2026-04-28 21:53 | 7.17430 | 79.88078 | 30 ft | 17 kts | 218° |
| 2026-04-28 21:53 | 7.17337 | 79.88007 | 30 ft | 17 kts | 216° |
| 2026-04-28 21:53 | 7.17243 | 79.87934 | 30 ft | 18 kts | 217° |
| 2026-04-28 21:54 | 7.17146 | 79.87862 | 30 ft | 17 kts | 217° |
| 2026-04-28 21:54 | 7.17050 | 79.87789 | 30 ft | 17 kts | 217° |
| 2026-04-28 21:54 | 7.16955 | 79.87715 | 30 ft | 17 kts | 217° |
| 2026-04-28 21:54 | 7.16863 | 79.87645 | 30 ft | 14 kts | 217° |
| 2026-04-28 21:55 | 7.16846 | 79.87580 | 31 ft | 7 kts | 301° |
| 2026-04-28 21:55 | 7.16848 | 79.87577 | 31 ft | 0 kts | 304° |
| 2026-04-28 21:55 | 7.16857 | 79.87564 | 31 ft | 4 kts | 306° |
| 2026-04-28 21:56 | 7.16887 | 79.87524 | 31 ft | 12 kts | 306° |
| 2026-04-28 21:56 | 7.16982 | 79.87517 | 32 ft | 30 kts | 45° |
| 2026-04-28 21:56 | 7.17333 | 79.87780 | 31 ft | 95 kts | 37° |
| 2026-04-28 21:56 | 7.18015 | 79.88300 | 32 ft | 149 kts | 37° |
| 2026-04-28 21:57 | 7.18905 | 79.88962 | 358 ft | 161 kts | 39° |
| 2026-04-28 21:57 | 7.19812 | 79.89638 | 824 ft | 167 kts | 33° |
| 2026-04-28 21:57 | 7.20948 | 79.89798 | 1232 ft | 173 kts | 338° |
| 2026-04-28 21:57 | 7.22051 | 79.89291 | 1655 ft | 186 kts | 335° |
| 2026-04-28 21:58 | 7.23412 | 79.88827 | 1875 ft | 225 kts | 347° |
| 2026-04-28 21:58 | 7.25059 | 79.88611 | 2291 ft | 251 kts | 354° |
| 2026-04-28 21:58 | 7.26863 | 79.88516 | 2838 ft | 267 kts | 359° |
| 2026-04-28 21:58 | 7.28537 | 79.88525 | 3380 ft | 277 kts | 1° |
| 2026-04-28 21:59 | 7.30480 | 79.88569 | 4139 ft | 281 kts | 0° |
| 2026-04-28 21:59 | 7.32438 | 79.88591 | 4966 ft | 282 kts | 359° |
| 2026-04-28 21:59 | 7.34409 | 79.88601 | 5766 ft | 284 kts | 360° |
| 2026-04-28 22:00 | 7.38393 | 79.88627 | 7265 ft | 289 kts | 360° |
| 2026-04-28 22:00 | 7.40416 | 79.88632 | 7991 ft | 293 kts | 0° |
| 2026-04-28 22:00 | 7.42465 | 79.88633 | 8749 ft | 295 kts | 0° |
| 2026-04-28 22:00 | 7.44528 | 79.88635 | 9501 ft | 298 kts | 0° |
| 2026-04-28 22:01 | 7.45935 | 79.88637 | 9977 ft | 300 kts | 0° |
| 2026-04-28 22:01 | 7.48030 | 79.88640 | 10422 ft | 313 kts | 0° |
| 2026-04-28 22:01 | 7.50267 | 79.88746 | 10706 ft | 330 kts | 9° |
| 2026-04-28 22:01 | 7.52541 | 79.89247 | 11150 ft | 339 kts | 15° |
| 2026-04-28 22:02 | 7.54820 | 79.89919 | 11732 ft | 343 kts | 19° |
| 2026-04-28 22:02 | 7.57089 | 79.90696 | 12366 ft | 345 kts | 20° |